createdAt,value
2019-03-19T00:01:48.471Z,55.20
2019-03-19T00:04:46.162Z,55.20
2019-03-19T00:07:38.905Z,55.30
2019-03-19T00:10:35.347Z,55.30
2019-03-19T00:13:27.963Z,55.20
2019-03-19T00:16:20.075Z,55.30
2019-03-19T00:19:13.016Z,55.30
2019-03-19T00:22:07.495Z,55.50
2019-03-19T00:24:59.259Z,55.30
2019-03-19T00:27:52.058Z,55.30
2019-03-19T00:30:44.867Z,55.30
2019-03-19T00:33:38.438Z,55.10
2019-03-19T00:36:30.732Z,55.10
2019-03-19T00:39:23.722Z,55.00
2019-03-19T00:42:19.039Z,55.20
2019-03-19T00:45:15.181Z,55.20
2019-03-19T00:48:07.531Z,55.40
2019-03-19T00:51:00.283Z,55.40
2019-03-19T00:53:52.550Z,55.30
2019-03-19T00:56:45.530Z,55.30
2019-03-19T00:59:38.564Z,55.30
2019-03-19T01:02:31.720Z,55.40
2019-03-19T01:05:24.791Z,55.30
2019-03-19T01:08:17.848Z,55.50
2019-03-19T01:11:15.631Z,55.40
2019-03-19T01:14:11.667Z,55.40
2019-03-19T01:17:06.376Z,55.50
2019-03-19T01:19:58.479Z,55.50
2019-03-19T01:22:57.748Z,55.50
2019-03-19T01:25:55.427Z,55.50
2019-03-19T01:28:46.191Z,55.50
2019-03-19T01:31:38.607Z,55.50
2019-03-19T01:34:34.596Z,55.50
2019-03-19T01:37:27.743Z,55.60
2019-03-19T01:40:20.537Z,55.60
2019-03-19T01:43:13.371Z,55.60
2019-03-19T01:46:07.384Z,55.60
2019-03-19T01:48:59.709Z,55.60
2019-03-19T01:51:54.000Z,55.50
2019-03-19T01:54:47.074Z,55.60
2019-03-19T01:57:39.993Z,55.60
2019-03-19T02:00:32.658Z,55.60
2019-03-19T02:03:27.081Z,55.60
2019-03-19T02:06:20.916Z,55.50
2019-03-19T02:09:13.806Z,55.40
2019-03-19T02:12:06.782Z,55.40
2019-03-19T02:15:00.041Z,55.30
2019-03-19T02:17:53.164Z,55.40
2019-03-19T02:20:46.109Z,55.30
2019-03-19T02:23:40.017Z,55.20
2019-03-19T02:26:33.047Z,55.20
2019-03-19T02:29:26.170Z,55.20
2019-03-19T02:32:19.210Z,55.20
2019-03-19T02:35:12.759Z,55.20
2019-03-19T02:38:06.462Z,55.20
2019-03-19T02:41:00.016Z,55.20
2019-03-19T02:43:52.775Z,55.20
2019-03-19T02:46:46.724Z,55.20
2019-03-19T02:49:39.704Z,55.20
2019-03-19T02:52:33.690Z,55.20
2019-03-19T02:55:26.575Z,55.20
2019-03-19T02:58:21.419Z,55.20
2019-03-19T03:01:13.991Z,55.20
2019-03-19T03:04:08.125Z,55.20
2019-03-19T03:07:00.786Z,55.20
2019-03-19T03:09:54.741Z,55.20
2019-03-19T03:12:47.303Z,55.20
2019-03-19T03:15:40.741Z,55.10
2019-03-19T03:18:35.717Z,55.20
2019-03-19T03:21:28.792Z,55.10
2019-03-19T03:24:21.500Z,55.20
2019-03-19T03:27:16.324Z,55.10
2019-03-19T03:30:09.804Z,55.10
2019-03-19T03:33:03.394Z,55.10
2019-03-19T03:35:56.260Z,55.20
2019-03-19T03:38:49.685Z,55.20
2019-03-19T03:41:42.294Z,55.20
2019-03-19T03:44:35.636Z,55.20
2019-03-19T03:47:30.176Z,55.20
2019-03-19T03:50:23.965Z,55.20
2019-03-19T03:53:17.785Z,55.20
2019-03-19T03:56:13.735Z,55.10
2019-03-19T03:59:06.337Z,55.00
2019-03-19T04:01:58.591Z,55.10
2019-03-19T04:04:52.892Z,55.00
2019-03-19T04:07:47.110Z,55.00
2019-03-19T04:10:43.942Z,54.70
2019-03-19T04:13:38.336Z,54.30
2019-03-19T04:16:31.359Z,54.80
2019-03-19T04:19:24.054Z,54.90
2019-03-19T04:22:16.860Z,54.20
2019-03-19T04:25:10.190Z,54.20
2019-03-19T04:28:03.745Z,54.40
2019-03-19T04:30:57.780Z,54.40
2019-03-19T04:33:50.930Z,54.30
2019-03-19T04:36:45.044Z,54.40
2019-03-19T04:39:38.777Z,54.50
2019-03-19T04:42:33.828Z,54.60
2019-03-19T04:45:25.346Z,54.50
2019-03-19T04:48:20.076Z,54.60
2019-03-19T04:51:12.729Z,52.50
2019-03-19T04:54:05.648Z,50.70
2019-03-19T04:57:13.897Z,49.80
2019-03-19T05:00:14.542Z,48.60
2019-03-19T05:03:11.034Z,47.60
2019-03-19T05:06:04.340Z,47.00
2019-03-19T05:09:00.048Z,46.50
2019-03-19T05:11:57.098Z,47.10
2019-03-19T05:14:52.047Z,47.80
2019-03-19T05:17:47.307Z,47.70
2019-03-19T05:20:41.149Z,48.40
2019-03-19T05:23:35.436Z,48.00
2019-03-19T05:26:33.916Z,48.60
2019-03-19T05:29:30.251Z,46.90
2019-03-19T05:32:31.491Z,47.00
2019-03-19T05:35:26.841Z,48.50
2019-03-19T05:38:25.975Z,46.50
2019-03-19T05:41:25.071Z,46.50
2019-03-19T05:44:20.848Z,47.40
2019-03-19T05:47:16.758Z,46.20
2019-03-19T05:50:18.307Z,46.30
2019-03-19T05:53:12.748Z,47.20
2019-03-19T05:56:06.488Z,45.80
2019-03-19T05:58:58.935Z,45.70
2019-03-19T06:01:52.516Z,47.40
2019-03-19T06:04:52.290Z,45.80
2019-03-19T06:07:46.507Z,45.10
2019-03-19T06:10:42.327Z,47.10
2019-03-19T06:13:38.015Z,46.20
2019-03-19T06:16:31.428Z,46.50
2019-03-19T06:19:25.318Z,47.30
2019-03-19T06:22:19.619Z,46.50
2019-03-19T06:25:16.015Z,46.00
2019-03-19T06:28:09.865Z,47.40
2019-03-19T06:31:04.515Z,48.00
2019-03-19T06:34:03.960Z,49.60
2019-03-19T06:37:01.440Z,50.50
2019-03-19T06:40:00.941Z,49.90
2019-03-19T06:42:58.562Z,49.80
2019-03-19T06:45:54.085Z,50.50
2019-03-19T06:48:50.939Z,50.50
2019-03-19T06:52:01.450Z,49.90
2019-03-19T06:54:54.140Z,50.20
2019-03-19T06:57:49.844Z,50.00
2019-03-19T07:00:47.626Z,49.70
2019-03-19T07:03:44.259Z,50.40
2019-03-19T07:06:37.467Z,50.30
2019-03-19T07:09:33.805Z,50.60
2019-03-19T07:12:26.812Z,50.90
2019-03-19T07:15:19.086Z,50.80
2019-03-19T07:18:16.099Z,50.30
2019-03-19T07:21:14.307Z,50.60
2019-03-19T07:24:09.091Z,50.60
2019-03-19T07:27:06.323Z,49.90
2019-03-19T07:30:07.569Z,50.50
2019-03-19T07:33:05.717Z,50.40
2019-03-19T07:36:02.181Z,50.00
2019-03-19T07:38:59.926Z,50.50
2019-03-19T07:41:55.376Z,50.00
2019-03-19T07:44:51.456Z,49.60
2019-03-19T07:47:46.109Z,49.90
2019-03-19T07:50:39.357Z,50.10
2019-03-19T07:53:34.432Z,49.80
2019-03-19T07:56:27.096Z,49.60
2019-03-19T07:59:21.596Z,49.40
2019-03-19T08:02:19.457Z,49.40
2019-03-19T08:05:14.360Z,49.60
2019-03-19T08:08:12.732Z,49.80
2019-03-19T08:11:07.742Z,50.70
2019-03-19T08:14:01.416Z,51.10
2019-03-19T08:16:55.519Z,50.60
2019-03-19T08:19:50.215Z,50.30
2019-03-19T08:22:45.391Z,50.80
2019-03-19T08:25:38.861Z,51.20
2019-03-19T08:28:33.849Z,50.90
2019-03-19T08:31:25.673Z,48.90
2019-03-19T08:34:19.759Z,50.40
2019-03-19T08:37:15.576Z,50.10
2019-03-19T08:40:18.461Z,50.50
2019-03-19T08:43:16.581Z,49.70
2019-03-19T08:46:11.720Z,49.40
2019-03-19T08:49:06.930Z,50.10
2019-03-19T08:52:01.117Z,50.10
2019-03-19T08:54:56.499Z,50.20
2019-03-19T08:57:50.331Z,49.70
2019-03-19T09:00:44.617Z,50.00
2019-03-19T09:03:38.068Z,50.50
2019-03-19T09:06:31.443Z,50.40
2019-03-19T09:09:25.849Z,48.90
2019-03-19T09:12:22.178Z,50.20
2019-03-19T09:15:19.433Z,51.20
2019-03-19T09:18:16.154Z,50.00
2019-03-19T09:21:09.109Z,49.40
2019-03-19T09:24:02.143Z,51.20
2019-03-19T09:26:56.250Z,51.00
2019-03-19T09:29:50.522Z,50.00
2019-03-19T09:32:44.999Z,50.00
2019-03-19T09:35:40.239Z,49.60
2019-03-19T09:44:58.215Z,47.40
2019-03-19T09:47:46.196Z,49.00
2019-03-19T09:50:41.085Z,49.50
2019-03-19T09:53:33.578Z,48.50
2019-03-19T09:56:26.828Z,49.90
2019-03-19T09:59:26.843Z,50.40
2019-03-19T10:02:16.812Z,51.50
2019-03-19T10:05:12.340Z,50.20
2019-03-19T10:08:07.220Z,50.40
2019-03-19T10:11:02.160Z,51.60
2019-03-19T10:13:57.657Z,50.80
2019-03-19T10:16:51.804Z,50.10
2019-03-19T10:19:44.641Z,49.00
2019-03-19T10:22:37.852Z,48.80
2019-03-19T10:25:31.175Z,50.20
2019-03-19T10:28:24.548Z,48.60
2019-03-19T10:31:17.691Z,47.00
2019-03-19T10:34:11.480Z,47.40
2019-03-19T10:37:04.859Z,49.80
2019-03-19T10:39:59.671Z,48.20
2019-03-19T10:42:52.965Z,47.20
2019-03-19T10:45:47.846Z,47.50
2019-03-19T10:48:42.053Z,48.80
2019-03-19T10:51:36.284Z,49.40
2019-03-19T10:54:30.153Z,48.70
2019-03-19T10:57:22.922Z,50.20
2019-03-19T11:00:20.679Z,49.10
2019-03-19T11:03:18.910Z,48.10
2019-03-19T11:06:14.630Z,48.30
2019-03-19T11:09:12.325Z,50.00
2019-03-19T11:12:09.456Z,48.00
2019-03-19T11:15:06.691Z,48.40
2019-03-19T11:18:02.210Z,49.30
2019-03-19T11:20:56.982Z,47.90
2019-03-19T11:23:51.750Z,47.90
2019-03-19T11:26:47.977Z,48.90
2019-03-19T11:29:44.078Z,47.20
2019-03-19T11:32:45.976Z,47.10
2019-03-19T11:35:47.422Z,48.70
2019-03-19T11:38:41.376Z,47.70
2019-03-19T11:41:34.663Z,47.50
2019-03-19T11:44:28.884Z,48.70
2019-03-19T11:47:25.796Z,47.60
2019-03-19T11:50:22.073Z,47.90
2019-03-19T11:53:19.345Z,48.70
2019-03-19T11:56:15.881Z,47.80
2019-03-19T11:59:10.282Z,47.60
2019-03-19T12:02:11.086Z,49.20
2019-03-19T12:05:04.242Z,48.70
2019-03-19T12:07:57.602Z,47.70
2019-03-19T12:10:51.064Z,48.00
2019-03-19T12:13:44.387Z,48.10
2019-03-19T12:16:38.997Z,47.30
2019-03-19T12:19:31.797Z,47.30
2019-03-19T12:22:25.849Z,48.50
2019-03-19T12:25:19.763Z,47.50
2019-03-19T12:28:14.418Z,47.50
2019-03-19T12:31:08.664Z,48.50
2019-03-19T12:34:01.096Z,47.90
2019-03-19T12:36:54.420Z,47.80
2019-03-19T12:39:48.037Z,49.30
2019-03-19T12:42:43.414Z,48.50
2019-03-19T12:45:38.798Z,48.30
2019-03-19T12:48:35.462Z,48.90
2019-03-19T12:51:29.839Z,49.40
2019-03-19T12:54:24.605Z,48.90
2019-03-19T12:57:18.313Z,48.90
2019-03-19T13:00:14.203Z,49.60
2019-03-19T13:03:07.093Z,49.40
2019-03-19T13:05:58.632Z,49.50
2019-03-19T13:08:51.318Z,49.60
2019-03-19T13:11:43.802Z,49.10
2019-03-19T13:14:37.335Z,49.30
2019-03-19T13:17:30.331Z,50.00
2019-03-19T13:20:24.138Z,49.70
2019-03-19T13:23:16.652Z,49.80
2019-03-19T13:26:09.659Z,50.30
2019-03-19T13:29:02.486Z,49.10
2019-03-19T13:31:56.457Z,49.10
2019-03-19T13:34:48.778Z,49.80
2019-03-19T13:37:41.608Z,48.60
2019-03-19T13:40:34.302Z,48.80
2019-03-19T13:43:26.728Z,49.90
2019-03-19T13:46:20.441Z,47.70
2019-03-19T13:49:14.559Z,47.70
2019-03-19T13:52:07.203Z,48.10
2019-03-19T13:55:00.504Z,48.20
2019-03-19T13:57:54.458Z,49.60
2019-03-19T14:00:55.473Z,48.50
2019-03-19T14:03:43.129Z,47.50
2019-03-19T14:06:36.931Z,47.90
2019-03-19T14:09:30.253Z,49.80
2019-03-19T14:12:23.969Z,48.90
2019-03-19T14:15:17.743Z,48.40
2019-03-19T14:18:11.379Z,48.30
2019-03-19T14:21:06.974Z,49.90
2019-03-19T14:24:01.808Z,49.00
2019-03-19T14:26:53.988Z,48.50
2019-03-19T14:29:47.479Z,48.60
2019-03-19T14:32:40.144Z,50.30
2019-03-19T14:35:37.383Z,48.70
2019-03-19T14:38:27.841Z,48.60
2019-03-19T14:41:20.622Z,48.50
2019-03-19T14:44:13.382Z,48.60
2019-03-19T14:47:07.377Z,48.90
2019-03-19T14:50:00.365Z,49.00
2019-03-19T14:52:53.368Z,49.30
2019-03-19T14:55:46.015Z,49.70
2019-03-19T14:58:39.715Z,49.90
2019-03-19T15:01:32.792Z,50.20
2019-03-19T15:04:25.319Z,50.40
2019-03-19T15:07:19.320Z,50.60
2019-03-19T15:10:12.846Z,50.80
2019-03-19T15:13:05.405Z,50.90
2019-03-19T15:15:59.024Z,51.10
2019-03-19T15:18:52.827Z,51.30
2019-03-19T15:21:45.883Z,51.50
2019-03-19T15:24:38.355Z,51.50
2019-03-19T15:27:31.089Z,51.70
2019-03-19T15:30:23.681Z,51.80
2019-03-19T15:33:15.910Z,51.90
2019-03-19T15:36:08.638Z,52.00
2019-03-19T15:39:01.354Z,52.10
2019-03-19T15:41:55.092Z,52.10
2019-03-19T15:44:47.572Z,52.20
2019-03-19T15:47:39.992Z,52.20
2019-03-19T15:50:32.321Z,52.30
2019-03-19T15:53:24.917Z,52.20
2019-03-19T15:56:17.335Z,52.60
2019-03-19T15:59:12.038Z,52.70
2019-03-19T16:02:06.362Z,52.80
2019-03-19T16:04:59.695Z,52.80
2019-03-19T16:07:54.110Z,52.90
2019-03-19T16:10:47.169Z,52.90
2019-03-19T16:13:40.446Z,53.10
2019-03-19T16:16:33.178Z,53.00
2019-03-19T16:19:27.957Z,53.20
2019-03-19T16:22:20.924Z,53.10
2019-03-19T16:25:15.674Z,53.30
2019-03-19T16:28:08.937Z,53.40
2019-03-19T16:31:01.756Z,53.30
2019-03-19T16:33:56.514Z,53.20
2019-03-19T16:36:49.698Z,53.20
2019-03-19T16:39:42.896Z,53.20
2019-03-19T16:42:36.004Z,53.30
2019-03-19T16:45:29.074Z,53.30
2019-03-19T16:48:22.808Z,53.20
2019-03-19T16:51:16.040Z,53.20
2019-03-19T16:54:09.719Z,53.30
2019-03-19T16:57:03.749Z,53.50
2019-03-19T16:59:57.027Z,53.40
2019-03-19T17:02:50.902Z,53.40
2019-03-19T17:05:44.999Z,53.60
2019-03-19T17:08:37.482Z,53.70
2019-03-19T17:11:30.031Z,53.70
2019-03-19T17:14:23.560Z,53.80
2019-03-19T17:17:16.104Z,53.70
2019-03-19T17:20:09.282Z,53.80
2019-03-19T17:23:02.434Z,53.90
2019-03-19T17:25:56.582Z,53.90
2019-03-19T17:28:50.038Z,54.10
2019-03-19T17:31:44.117Z,54.00
2019-03-19T17:34:36.920Z,53.90
2019-03-19T17:37:30.678Z,53.90
2019-03-19T17:40:23.363Z,53.90
2019-03-19T17:43:16.973Z,53.90
2019-03-19T17:46:09.591Z,53.80
2019-03-19T17:49:04.029Z,53.70
2019-03-19T17:51:56.310Z,53.80
2019-03-19T17:54:49.341Z,53.60
2019-03-19T17:57:41.766Z,53.60
2019-03-19T18:00:35.156Z,53.60
2019-03-19T18:03:28.089Z,53.60
2019-03-19T18:06:20.934Z,53.50
2019-03-19T18:09:13.409Z,53.60
2019-03-19T18:12:06.281Z,53.70
2019-03-19T18:14:58.970Z,53.70
2019-03-19T18:17:51.629Z,53.70
2019-03-19T18:20:44.249Z,53.80
2019-03-19T18:23:36.673Z,53.80
2019-03-19T18:26:30.039Z,53.80
2019-03-19T18:29:23.779Z,53.90
2019-03-19T18:32:16.463Z,54.00
2019-03-19T18:35:10.724Z,53.80
2019-03-19T18:38:03.875Z,53.80
2019-03-19T18:40:56.829Z,53.80
2019-03-19T18:43:50.013Z,53.80
2019-03-19T18:46:42.493Z,53.80
2019-03-19T18:49:34.966Z,53.80
2019-03-19T18:52:27.355Z,54.00
2019-03-19T18:55:20.056Z,53.80
2019-03-19T18:58:12.641Z,53.80
2019-03-19T19:01:05.011Z,53.80
2019-03-19T19:03:57.668Z,53.90
2019-03-19T19:06:51.863Z,53.90
2019-03-19T19:09:44.059Z,53.90
2019-03-19T19:12:36.459Z,54.00
2019-03-19T19:15:28.641Z,54.00
2019-03-19T19:18:21.174Z,53.90
2019-03-19T19:21:13.489Z,53.90
2019-03-19T19:24:05.819Z,53.80
2019-03-19T19:26:58.228Z,53.90
2019-03-19T19:29:51.078Z,53.80
2019-03-19T19:32:43.566Z,53.90
2019-03-19T19:35:35.785Z,54.00
2019-03-19T19:38:28.051Z,54.00
2019-03-19T19:41:20.382Z,54.10
2019-03-19T19:44:12.944Z,53.90
2019-03-19T19:47:05.834Z,54.10
2019-03-19T19:49:58.429Z,54.10
2019-03-19T19:52:51.154Z,54.10
2019-03-19T19:55:43.847Z,54.10
2019-03-19T19:58:36.461Z,54.10
2019-03-19T20:01:29.342Z,54.10
2019-03-19T20:04:22.456Z,54.00
2019-03-19T20:07:14.691Z,54.20
2019-03-19T20:10:08.122Z,54.10
2019-03-19T20:13:00.859Z,54.40
2019-03-19T20:15:53.854Z,54.20
2019-03-19T20:18:46.462Z,54.10
2019-03-19T20:21:39.253Z,54.00
2019-03-19T20:24:31.235Z,54.10
2019-03-19T20:27:24.148Z,54.30
2019-03-19T20:30:17.930Z,54.40
2019-03-19T20:33:10.943Z,54.50
2019-03-19T20:36:03.627Z,54.50
2019-03-19T20:38:56.375Z,54.60
2019-03-19T20:41:48.670Z,54.30
2019-03-19T20:44:41.237Z,54.40
2019-03-19T20:47:33.483Z,54.60
2019-03-19T20:50:27.155Z,54.50
2019-03-19T20:53:19.757Z,54.60
2019-03-19T20:56:12.053Z,54.80
2019-03-19T20:59:05.061Z,54.90
2019-03-19T21:01:57.686Z,55.60
2019-03-19T21:04:50.014Z,54.90
2019-03-19T21:07:42.746Z,54.80
2019-03-19T21:10:35.326Z,54.90
2019-03-19T21:13:27.750Z,55.00
2019-03-19T21:16:19.816Z,55.00
2019-03-19T21:19:12.282Z,55.00
2019-03-19T21:22:05.097Z,55.20
2019-03-19T21:24:57.641Z,55.30
2019-03-19T21:27:50.052Z,55.30
2019-03-19T21:30:43.265Z,55.40
2019-03-19T21:33:36.094Z,55.40
2019-03-19T21:36:28.532Z,55.40
2019-03-19T21:39:21.166Z,55.40
2019-03-19T21:42:13.787Z,55.40
2019-03-19T21:45:06.922Z,55.70
2019-03-19T21:47:59.414Z,55.60
2019-03-19T21:50:51.883Z,55.50
2019-03-19T21:53:44.259Z,55.40
2019-03-19T21:56:36.365Z,55.50
2019-03-19T21:59:29.106Z,55.50
2019-03-19T22:02:22.650Z,55.40
2019-03-19T22:05:15.326Z,55.60
2019-03-19T22:08:07.651Z,55.70
2019-03-19T22:11:00.071Z,55.70
2019-03-19T22:13:52.925Z,55.90
2019-03-19T22:16:45.348Z,56.00
2019-03-19T22:19:40.108Z,56.00
2019-03-19T22:22:31.590Z,56.10
2019-03-19T22:25:24.414Z,56.10
2019-03-19T22:28:17.136Z,56.00
2019-03-19T22:31:09.717Z,56.00
2019-03-19T22:34:02.557Z,56.00
2019-03-19T22:36:54.700Z,56.10
2019-03-19T22:39:47.039Z,56.10
2019-03-19T22:42:39.364Z,56.00
2019-03-19T22:45:31.782Z,56.00
2019-03-19T22:48:24.245Z,56.10
2019-03-19T22:51:17.058Z,56.20
2019-03-19T22:54:09.214Z,56.30
2019-03-19T22:57:02.000Z,56.20
2019-03-19T22:59:54.338Z,56.00
2019-03-19T23:02:46.719Z,56.00
2019-03-19T23:05:40.332Z,55.70
2019-03-19T23:08:32.975Z,55.70
2019-03-19T23:11:25.577Z,55.80
2019-03-19T23:14:18.331Z,55.80
2019-03-19T23:17:10.559Z,55.80
2019-03-19T23:20:02.910Z,55.90
2019-03-19T23:22:55.268Z,56.00
2019-03-19T23:25:47.730Z,56.00
2019-03-19T23:28:39.973Z,56.00
2019-03-19T23:31:33.928Z,56.00
2019-03-19T23:34:26.448Z,56.00
2019-03-19T23:37:19.040Z,55.90
2019-03-19T23:40:11.635Z,55.90
2019-03-19T23:43:05.238Z,55.90
2019-03-19T23:45:57.635Z,55.80
2019-03-19T23:48:51.026Z,55.70
2019-03-19T23:51:43.845Z,55.80
2019-03-19T23:54:36.483Z,55.70
2019-03-19T23:57:28.805Z,55.80
